sensor_id;sensor_type;location;lat;lon;timestamp;temperature;humidity
67165;SHT31;54093;50.014;19.984;2023-03-31T00:09:08;10.79;72.06
67165;SHT31;54093;50.014;19.984;2023-03-31T00:18:29;10.80;72.11
67165;SHT31;54093;50.014;19.984;2023-03-31T00:27:50;10.84;72.22
67165;SHT31;54093;50.014;19.984;2023-03-31T00:37:12;10.84;72.47
67165;SHT31;54093;50.014;19.984;2023-03-31T00:56:10;10.84;72.71
67165;SHT31;54093;50.014;19.984;2023-03-31T01:05:52;10.87;72.54
67165;SHT31;54093;50.014;19.984;2023-03-31T01:15:16;10.99;71.92
67165;SHT31;54093;50.014;19.984;2023-03-31T01:34:54;11.03;71.29
67165;SHT31;54093;50.014;19.984;2023-03-31T01:53:50;10.91;71.33
67165;SHT31;54093;50.014;19.984;2023-03-31T02:03:17;10.96;70.91
67165;SHT31;54093;50.014;19.984;2023-03-31T02:12:42;10.89;71.09
67165;SHT31;54093;50.014;19.984;2023-03-31T02:22:04;10.79;71.14
67165;SHT31;54093;50.014;19.984;2023-03-31T02:40:57;10.70;71.28
67165;SHT31;54093;50.014;19.984;2023-03-31T02:50:23;10.70;71.24
67165;SHT31;54093;50.014;19.984;2023-03-31T03:19:21;10.45;71.58
67165;SHT31;54093;50.014;19.984;2023-03-31T03:28:42;10.38;71.81
67165;SHT31;54093;50.014;19.984;2023-03-31T03:38:04;10.31;71.88
67165;SHT31;54093;50.014;19.984;2023-03-31T03:47:25;10.29;71.83
67165;SHT31;54093;50.014;19.984;2023-03-31T03:56:45;10.22;71.85
67165;SHT31;54093;50.014;19.984;2023-03-31T04:06:06;10.16;72.04
67165;SHT31;54093;50.014;19.984;2023-03-31T04:15:27;10.15;71.92
67165;SHT31;54093;50.014;19.984;2023-03-31T04:24:48;10.08;72.08
67165;SHT31;54093;50.014;19.984;2023-03-31T04:34:14;10.06;72.08
67165;SHT31;54093;50.014;19.984;2023-03-31T04:43:34;10.04;72.11
67165;SHT31;54093;50.014;19.984;2023-03-31T04:52:55;10.02;72.14
67165;SHT31;54093;50.014;19.984;2023-03-31T05:02:16;10.06;72.08
67165;SHT31;54093;50.014;19.984;2023-03-31T05:11:42;10.08;71.85
67165;SHT31;54093;50.014;19.984;2023-03-31T05:21:15;10.09;71.98
67165;SHT31;54093;50.014;19.984;2023-03-31T05:30:36;10.11;72.27
67165;SHT31;54093;50.014;19.984;2023-03-31T05:39:57;10.18;72.05
67165;SHT31;54093;50.014;19.984;2023-03-31T05:49:19;10.16;72.16
67165;SHT31;54093;50.014;19.984;2023-03-31T05:58:40;10.21;72.00
67165;SHT31;54093;50.014;19.984;2023-03-31T06:08:02;10.52;71.29
67165;SHT31;54093;50.014;19.984;2023-03-31T06:17:24;10.60;70.88
67165;SHT31;54093;50.014;19.984;2023-03-31T06:26:45;11.03;69.97
67165;SHT31;54093;50.014;19.984;2023-03-31T06:36:06;11.30;69.33
67165;SHT31;54093;50.014;19.984;2023-03-31T06:45:27;11.62;68.46
67165;SHT31;54093;50.014;19.984;2023-03-31T06:54:48;11.82;67.40
67165;SHT31;54093;50.014;19.984;2023-03-31T07:04:09;11.97;66.69
67165;SHT31;54093;50.014;19.984;2023-03-31T07:13:30;12.28;65.81
67165;SHT31;54093;50.014;19.984;2023-03-31T07:22:51;12.76;63.95
67165;SHT31;54093;50.014;19.984;2023-03-31T07:32:12;12.99;62.62
67165;SHT31;54093;50.014;19.984;2023-03-31T07:41:33;13.24;61.56
67165;SHT31;54093;50.014;19.984;2023-03-31T07:50:54;13.68;61.56
67165;SHT31;54093;50.014;19.984;2023-03-31T08:00:15;14.06;58.77
67165;SHT31;54093;50.014;19.984;2023-03-31T08:09:37;14.22;59.43
67165;SHT31;54093;50.014;19.984;2023-03-31T08:18:58;14.69;58.09
67165;SHT31;54093;50.014;19.984;2023-03-31T08:28:19;15.00;55.44
67165;SHT31;54093;50.014;19.984;2023-03-31T08:37:40;15.01;54.80
67165;SHT31;54093;50.014;19.984;2023-03-31T08:47:01;15.18;54.44
67165;SHT31;54093;50.014;19.984;2023-03-31T08:56:25;15.46;53.98
67165;SHT31;54093;50.014;19.984;2023-03-31T09:06:13;15.66;52.20
67165;SHT31;54093;50.014;19.984;2023-03-31T09:25:16;15.83;52.26
67165;SHT31;54093;50.014;19.984;2023-03-31T09:34:39;16.27;50.84
67165;SHT31;54093;50.014;19.984;2023-03-31T09:44:00;15.77;50.80
67165;SHT31;54093;50.014;19.984;2023-03-31T09:53:46;15.83;51.45
67165;SHT31;54093;50.014;19.984;2023-03-31T10:03:11;16.25;49.98
67165;SHT31;54093;50.014;19.984;2023-03-31T10:12:33;16.35;48.35
67165;SHT31;54093;50.014;19.984;2023-03-31T10:22:16;16.45;48.72
67165;SHT31;54093;50.014;19.984;2023-03-31T10:31:45;16.58;49.00
67165;SHT31;54093;50.014;19.984;2023-03-31T10:41:07;16.40;49.67
67165;SHT31;54093;50.014;19.984;2023-03-31T10:50:31;16.25;49.29
67165;SHT31;54093;50.014;19.984;2023-03-31T11:19:13;17.27;46.33
67165;SHT31;54093;50.014;19.984;2023-03-31T11:28:42;16.80;47.34
67165;SHT31;54093;50.014;19.984;2023-03-31T11:47:42;16.15;49.33
67165;SHT31;54093;50.014;19.984;2023-03-31T11:57:13;16.15;49.47
67165;SHT31;54093;50.014;19.984;2023-03-31T12:06:40;16.40;49.47
67165;SHT31;54093;50.014;19.984;2023-03-31T12:16:08;17.14;47.74
67165;SHT31;54093;50.014;19.984;2023-03-31T12:25:40;17.30;47.27
67165;SHT31;54093;50.014;19.984;2023-03-31T12:35:07;17.69;45.44
67165;SHT31;54093;50.014;19.984;2023-03-31T13:13:32;16.87;47.08
67165;SHT31;54093;50.014;19.984;2023-03-31T13:23:17;16.76;47.49
67165;SHT31;54093;50.014;19.984;2023-03-31T13:32:39;16.77;46.78
67165;SHT31;54093;50.014;19.984;2023-03-31T13:52:01;16.49;48.04
67165;SHT31;54093;50.014;19.984;2023-03-31T14:11:15;16.35;47.77
67165;SHT31;54093;50.014;19.984;2023-03-31T14:30:41;16.47;44.51
67165;SHT31;54093;50.014;19.984;2023-03-31T14:40:13;15.93;45.15
67165;SHT31;54093;50.014;19.984;2023-03-31T14:49:37;15.48;46.76
67165;SHT31;54093;50.014;19.984;2023-03-31T14:58:59;15.28;47.88
67165;SHT31;54093;50.014;19.984;2023-03-31T15:08:22;15.05;48.22
67165;SHT31;54093;50.014;19.984;2023-03-31T15:17:45;14.88;49.07
67165;SHT31;54093;50.014;19.984;2023-03-31T15:27:31;14.71;49.95
67165;SHT31;54093;50.014;19.984;2023-03-31T15:36:55;14.66;51.40
67165;SHT31;54093;50.014;19.984;2023-03-31T15:56:43;14.55;52.43
67165;SHT31;54093;50.014;19.984;2023-03-31T16:06:08;14.46;53.63
67165;SHT31;54093;50.014;19.984;2023-03-31T16:15:45;14.40;57.77
67165;SHT31;54093;50.014;19.984;2023-03-31T16:25:13;14.36;58.77
67165;SHT31;54093;50.014;19.984;2023-03-31T16:35:00;14.37;58.89
67165;SHT31;54093;50.014;19.984;2023-03-31T16:44:21;14.30;58.42
67165;SHT31;54093;50.014;19.984;2023-03-31T16:53:42;14.18;58.24
67165;SHT31;54093;50.014;19.984;2023-03-31T17:03:04;14.08;58.69
67165;SHT31;54093;50.014;19.984;2023-03-31T17:12:28;14.02;59.05
67165;SHT31;54093;50.014;19.984;2023-03-31T17:21:49;13.92;58.34
67165;SHT31;54093;50.014;19.984;2023-03-31T17:31:19;13.79;58.32
67165;SHT31;54093;50.014;19.984;2023-03-31T17:40:40;13.75;59.01
67165;SHT31;54093;50.014;19.984;2023-03-31T17:50:02;13.71;59.19
67165;SHT31;54093;50.014;19.984;2023-03-31T17:59:24;13.70;59.17
67165;SHT31;54093;50.014;19.984;2023-03-31T18:08:46;13.60;59.80
67165;SHT31;54093;50.014;19.984;2023-03-31T18:18:07;13.55;59.64
67165;SHT31;54093;50.014;19.984;2023-03-31T18:27:34;13.33;60.19
67165;SHT31;54093;50.014;19.984;2023-03-31T18:36:55;13.20;60.68
67165;SHT31;54093;50.014;19.984;2023-03-31T18:46:17;12.92;62.58
67165;SHT31;54093;50.014;19.984;2023-03-31T18:55:38;12.74;63.11
67165;SHT31;54093;50.014;19.984;2023-03-31T19:04:59;12.51;64.31
67165;SHT31;54093;50.014;19.984;2023-03-31T19:14:20;12.48;63.56
67165;SHT31;54093;50.014;19.984;2023-03-31T19:23:41;12.51;63.98
67165;SHT31;54093;50.014;19.984;2023-03-31T19:33:02;12.55;63.88
67165;SHT31;54093;50.014;19.984;2023-03-31T19:42:23;12.47;64.15
67165;SHT31;54093;50.014;19.984;2023-03-31T19:51:45;12.34;65.23
67165;SHT31;54093;50.014;19.984;2023-03-31T20:01:08;12.26;65.25
67165;SHT31;54093;50.014;19.984;2023-03-31T20:10:33;12.14;65.78
67165;SHT31;54093;50.014;19.984;2023-03-31T20:19:54;11.93;66.81
67165;SHT31;54093;50.014;19.984;2023-03-31T20:29:15;12.03;66.07
67165;SHT31;54093;50.014;19.984;2023-03-31T20:38:37;12.18;65.41
67165;SHT31;54093;50.014;19.984;2023-03-31T20:47:58;12.18;65.41
67165;SHT31;54093;50.014;19.984;2023-03-31T20:57:19;12.04;66.18
67165;SHT31;54093;50.014;19.984;2023-03-31T21:06:43;11.83;66.48
67165;SHT31;54093;50.014;19.984;2023-03-31T21:16:04;12.45;63.64
67165;SHT31;54093;50.014;19.984;2023-03-31T21:25:26;12.42;63.20
67165;SHT31;54093;50.014;19.984;2023-03-31T21:34:47;12.31;63.99
67165;SHT31;54093;50.014;19.984;2023-03-31T21:44:08;12.21;64.80
67165;SHT31;54093;50.014;19.984;2023-03-31T21:53:30;12.17;64.63
67165;SHT31;54093;50.014;19.984;2023-03-31T22:02:51;12.17;64.42
67165;SHT31;54093;50.014;19.984;2023-03-31T22:12:14;12.20;62.93
67165;SHT31;54093;50.014;19.984;2023-03-31T22:21:35;12.20;62.45
67165;SHT31;54093;50.014;19.984;2023-03-31T22:30:56;12.13;61.72
67165;SHT31;54093;50.014;19.984;2023-03-31T22:40:17;12.10;59.91
67165;SHT31;54093;50.014;19.984;2023-03-31T22:49:38;11.99;59.87
67165;SHT31;54093;50.014;19.984;2023-03-31T22:58:58;11.87;60.26
67165;SHT31;54093;50.014;19.984;2023-03-31T23:08:19;11.75;60.94
67165;SHT31;54093;50.014;19.984;2023-03-31T23:17:40;11.66;61.52
67165;SHT31;54093;50.014;19.984;2023-03-31T23:27:01;11.65;61.62
67165;SHT31;54093;50.014;19.984;2023-03-31T23:36:22;11.49;62.38
67165;SHT31;54093;50.014;19.984;2023-03-31T23:45:43;11.39;62.76
67165;SHT31;54093;50.014;19.984;2023-03-31T23:55:04;11.24;63.48
